createdAt,value
2017-08-01T19:35:08.439Z,1012.57
2017-08-01T19:36:17.350Z,1012.55
2017-08-01T19:37:26.247Z,1012.55
2017-08-01T19:38:35.158Z,1012.49
2017-08-01T19:39:44.383Z,1012.42
2017-08-01T19:40:53.291Z,1012.4
2017-08-01T19:42:02.213Z,1012.43
2017-08-01T19:43:11.459Z,1012.49
2017-08-01T19:44:20.370Z,1012.51
2017-08-01T19:45:29.276Z,1012.52
2017-08-01T19:46:38.182Z,1012.48
2017-08-01T19:47:47.086Z,1012.51
2017-08-01T19:48:55.998Z,1012.53
2017-08-01T19:50:05.234Z,1012.63
2017-08-01T19:51:14.148Z,1012.71
2017-08-01T19:52:23.053Z,1012.71
2017-08-01T19:53:31.961Z,1012.7
2017-08-01T19:54:40.862Z,1012.72
2017-08-01T19:55:49.774Z,1012.7
2017-08-01T19:56:58.673Z,1012.64
2017-08-01T19:58:07.597Z,1012.62
2017-08-01T19:59:16.508Z,1012.53
2017-08-01T20:00:25.412Z,1012.43
2017-08-01T20:01:34.320Z,1012.32
2017-08-01T20:02:43.228Z,1012.29
2017-08-01T20:03:52.137Z,1012.31
2017-08-01T20:05:01.049Z,1012.32
2017-08-01T20:06:09.967Z,1012.29
2017-08-01T20:07:18.882Z,1012.31
2017-08-01T20:08:27.789Z,1012.34
2017-08-01T20:09:36.694Z,1012.36
2017-08-01T20:10:45.611Z,1012.36
2017-08-01T20:11:54.831Z,1012.34
2017-08-01T20:13:03.741Z,1012.3
2017-08-01T20:14:12.646Z,1012.3
2017-08-01T20:15:21.555Z,1012.28
2017-08-01T20:16:30.457Z,1012.24
2017-08-01T20:17:39.699Z,1012.22
2017-08-01T20:18:48.618Z,1012.2
2017-08-01T20:19:57.526Z,1012.26
2017-08-01T20:21:07.079Z,1012.31
2017-08-01T20:22:15.983Z,1012.31
2017-08-01T20:23:24.890Z,1012.26
2017-08-01T20:24:33.792Z,1012.22
2017-08-01T20:25:43.024Z,1012.18
2017-08-01T20:26:51.929Z,1012.2
2017-08-01T20:28:00.851Z,1012.2
2017-08-01T20:29:09.753Z,1012.15
2017-08-01T20:30:18.658Z,1012.18
2017-08-01T20:31:27.560Z,1012.1
2017-08-01T20:32:36.471Z,1012.09
2017-08-01T20:33:45.701Z,1012.04
2017-08-01T20:34:54.929Z,1012.03
2017-08-01T20:36:03.838Z,1011.99
2017-08-01T20:37:12.752Z,1012
2017-08-01T20:38:21.662Z,1011.93
2017-08-01T20:39:30.570Z,1011.92
2017-08-01T20:40:39.479Z,1011.92
2017-08-01T20:41:48.389Z,1011.94
2017-08-01T20:42:57.301Z,1011.98
2017-08-01T20:44:06.208Z,1012.01
2017-08-01T20:45:15.113Z,1012.07
2017-08-01T20:46:24.356Z,1012.08
2017-08-01T20:47:33.264Z,1012.15
2017-08-01T20:48:42.177Z,1012.23
2017-08-01T20:49:51.425Z,1012.3
2017-08-01T20:51:00.331Z,1012.36
2017-08-01T20:52:09.234Z,1012.37
2017-08-01T20:53:18.141Z,1012.4
2017-08-01T20:54:27.049Z,1012.43
2017-08-01T20:55:35.958Z,1012.39
2017-08-01T20:56:44.867Z,1012.39
2017-08-01T20:57:53.770Z,1012.34
2017-08-01T20:59:02.680Z,1012.31
2017-08-01T21:00:11.927Z,1012.3
2017-08-01T21:01:20.838Z,1012.35
2017-08-01T21:02:29.745Z,1012.39
2017-08-01T21:03:38.659Z,1012.45
2017-08-01T21:04:47.570Z,1012.42
2017-08-01T21:05:56.478Z,1012.41
2017-08-01T21:07:05.378Z,1012.41
2017-08-01T21:08:14.297Z,1012.39
2017-08-01T21:09:23.265Z,1012.4
2017-08-01T21:10:32.238Z,1012.41
2017-08-01T21:11:41.192Z,1012.41
2017-08-01T21:12:50.154Z,1012.45
2017-08-01T21:13:59.100Z,1012.42
2017-08-01T21:15:08.012Z,1012.45
2017-08-01T21:16:16.916Z,1012.48
2017-08-01T21:17:26.139Z,1012.47
2017-08-01T21:18:35.045Z,1012.46
2017-08-01T21:19:43.953Z,1012.46
2017-08-01T21:20:52.875Z,1012.45
2017-08-01T21:22:01.785Z,1012.5
2017-08-01T21:23:10.696Z,1012.49
2017-08-01T21:24:19.602Z,1012.41
2017-08-01T21:25:28.515Z,1012.41
2017-08-01T21:26:38.060Z,1012.37
2017-08-01T21:27:46.973Z,1012.38
2017-08-01T21:28:55.874Z,1012.36
2017-08-01T21:30:04.783Z,1012.35
2017-08-01T21:31:13.693Z,1012.36
2017-08-01T21:32:22.605Z,1012.37
2017-08-01T21:33:32.163Z,1012.4
2017-08-01T21:34:41.074Z,1012.38
2017-08-01T21:35:49.983Z,1012.39
2017-08-01T21:36:58.884Z,1012.38
2017-08-01T21:38:08.116Z,1012.36
2017-08-01T21:39:17.051Z,1012.33
2017-08-01T21:40:25.958Z,1012.35
2017-08-01T21:41:34.868Z,1012.41
2017-08-01T21:42:43.772Z,1012.46
2017-08-01T21:43:52.676Z,1012.48
2017-08-01T21:45:01.580Z,1012.5
2017-08-01T21:46:10.491Z,1012.56
2017-08-01T21:47:19.410Z,1012.59
2017-08-01T21:48:28.319Z,1012.61
2017-08-01T21:49:37.225Z,1012.69
2017-08-01T21:50:46.125Z,1012.72
2017-08-01T21:51:55.033Z,1012.72
2017-08-01T21:53:03.947Z,1012.75
2017-08-01T21:54:12.852Z,1012.75
2017-08-01T21:55:21.758Z,1012.75
2017-08-01T21:56:30.992Z,1012.7
2017-08-01T21:57:39.899Z,1012.66
2017-08-01T21:58:49.134Z,1012.67
2017-08-01T21:59:58.033Z,1012.72
2017-08-01T22:01:06.947Z,1012.73
2017-08-01T22:02:16.167Z,1012.75
2017-08-01T22:03:25.115Z,1012.72
2017-08-01T22:04:34.370Z,1012.65
2017-08-01T22:05:43.295Z,1012.71
2017-08-01T22:06:52.221Z,1012.72
2017-08-01T22:08:01.172Z,1012.74
2017-08-01T22:09:10.101Z,1012.69
2017-08-01T22:10:19.029Z,1012.69
2017-08-01T22:11:27.949Z,1012.68
2017-08-01T22:12:36.873Z,1012.71
2017-08-01T22:13:45.795Z,1012.75
2017-08-01T22:14:54.712Z,1012.8
2017-08-01T22:16:03.637Z,1012.78
2017-08-01T22:17:12.560Z,1012.76
2017-08-01T22:18:21.493Z,1012.79
2017-08-01T22:19:30.421Z,1012.84
2017-08-01T22:20:39.365Z,1012.79
2017-08-01T22:21:48.291Z,1012.75
2017-08-01T22:22:57.213Z,1012.68
2017-08-01T22:24:06.142Z,1012.73
2017-08-01T22:25:15.067Z,1012.85
2017-08-01T22:26:23.990Z,1012.91
2017-08-01T22:27:32.912Z,1012.94
2017-08-01T22:28:41.831Z,1013.02
2017-08-01T22:29:50.750Z,1013.03
2017-08-01T22:30:59.673Z,1012.98
2017-08-01T22:32:08.601Z,1013.01
2017-08-01T22:33:17.521Z,1013.02
2017-08-01T22:34:26.444Z,1013.06
2017-08-01T22:35:35.365Z,1013.11
2017-08-01T22:36:44.303Z,1013.2
2017-08-01T22:37:53.227Z,1013.34
2017-08-01T22:39:02.148Z,1013.39
2017-08-01T22:40:11.065Z,1013.4
2017-08-01T22:41:19.995Z,1013.4
2017-08-01T22:42:28.922Z,1013.42
2017-08-01T22:43:37.843Z,1013.43
2017-08-01T22:44:46.763Z,1013.46
2017-08-01T22:45:55.686Z,1013.44
2017-08-01T22:47:04.606Z,1013.4
2017-08-01T22:48:13.853Z,1013.37
2017-08-01T22:49:22.774Z,1013.26
2017-08-01T22:50:32.017Z,1013.28
2017-08-01T22:51:40.945Z,1013.33
2017-08-01T22:52:49.870Z,1013.32
2017-08-01T22:53:58.790Z,1013.32
2017-08-01T22:55:07.724Z,1013.35
2017-08-01T22:56:16.648Z,1013.38
2017-08-01T22:57:25.578Z,1013.34
2017-08-01T22:58:34.498Z,1013.36
2017-08-01T22:59:43.418Z,1013.4
2017-08-01T23:00:52.338Z,1013.47
2017-08-01T23:02:01.261Z,1013.42
2017-08-01T23:03:10.191Z,1013.44
2017-08-01T23:04:19.110Z,1013.45
2017-08-01T23:05:28.032Z,1013.44
2017-08-01T23:06:36.959Z,1013.4
2017-08-01T23:07:45.890Z,1013.32
2017-08-01T23:08:55.129Z,1013.3
2017-08-01T23:10:04.055Z,1013.32
2017-08-01T23:11:12.978Z,1013.36
2017-08-01T23:12:21.899Z,1013.3
2017-08-01T23:13:30.821Z,1013.33
2017-08-01T23:14:39.746Z,1013.29
2017-08-01T23:15:48.669Z,1013.25
2017-08-01T23:16:57.615Z,1013.21
2017-08-01T23:18:06.539Z,1013.23
2017-08-01T23:19:15.453Z,1013.33
2017-08-01T23:20:24.376Z,1013.42
2017-08-01T23:21:33.625Z,1013.47
2017-08-01T23:22:42.543Z,1013.5
2017-08-01T23:23:51.469Z,1013.5
2017-08-01T23:25:00.393Z,1013.48
2017-08-01T23:26:09.317Z,1013.43
2017-08-01T23:27:18.239Z,1013.48
2017-08-01T23:28:27.162Z,1013.5
2017-08-01T23:29:36.401Z,1013.53
2017-08-01T23:30:45.656Z,1013.6
2017-08-01T23:31:55.221Z,1013.59
2017-08-01T23:33:04.463Z,1013.57
2017-08-01T23:34:13.721Z,1013.55
2017-08-01T23:35:22.641Z,1013.52
2017-08-01T23:36:31.564Z,1013.45
2017-08-01T23:37:40.490Z,1013.51
2017-08-01T23:38:49.413Z,1013.52
2017-08-01T23:39:58.332Z,1013.55
2017-08-01T23:41:07.257Z,1013.58
2017-08-01T23:42:16.176Z,1013.68
2017-08-01T23:43:25.100Z,1013.77
2017-08-01T23:44:34.354Z,1013.76
2017-08-01T23:45:43.274Z,1013.72
2017-08-01T23:46:52.201Z,1013.68
2017-08-01T23:48:01.130Z,1013.64
2017-08-01T23:49:10.060Z,1013.66
2017-08-01T23:50:19.007Z,1013.68
2017-08-01T23:51:27.928Z,1013.68
2017-08-01T23:52:36.849Z,1013.71
2017-08-01T23:53:45.773Z,1013.75
2017-08-01T23:54:54.697Z,1013.78
2017-08-01T23:56:03.625Z,1013.75
2017-08-01T23:57:12.548Z,1013.69
2017-08-01T23:58:21.464Z,1013.63
2017-08-01T23:59:30.391Z,1013.61
